Piedade, Brazil
Current Conditions -  °F | °C
As of 8:00 AM on Thursday 23 Oct 2014 (Local Time) from SBSP Reporting Station
Overcast Overcast  
Wind Chill: 63°   Ceiling: 1300
Heat Index: 63°   Visibility: 6mi
Dew Point: 54°   Wind: 7mph
Humidity: 72%   Direction: 80°E
Pressure: 30.21"   Gusts: NA
Location:  23.71°S, 47.43°W
Report Text: SBSP 231000Z 08006KT 030V130 9999 OVC013 17/12 Q1023
Loading
Personal Weather Stations






























Interactive Weather Map
Tropical Storm Tracking
New forecast layout! Learn more

10-Day Weather Forecast

Advertisements
Track Severe Weather on mobile